Time;durP1;ratioP1;P1;durP2;ratioP2;P2;SDS_P1;SDS_P2;PMS_P1;PMS_P2;Temp;Humidity;BMP_temperature;BMP_pressure;BME280_temperature;BME280_humidity;BME280_pressure;Samples;Min_cycle;Max_cycle;Signal;HPM_P1;HPM_P2
2021/08/24 00:02:04;;;;;;;10.23;6.30;;;23.90;99.90;;;;;;5018391;28;20201;-91
2021/08/24 00:04:39;;;;;;;8.93;6.60;;;24.20;99.90;;;;;;5039151;28;20269;-89
2021/08/24 00:07:18;;;;;;;8.57;6.30;;;23.90;99.90;;;;;;5039408;28;20194;-91
2021/08/24 00:09:51;;;;;;;8.53;5.27;;;23.40;99.90;;;;;;5039149;28;20185;-91
2021/08/24 00:12:24;;;;;;;7.47;6.03;;;23.40;99.90;;;;;;5038995;28;20201;-91
2021/08/24 00:15:02;;;;;;;12.63;6.03;;;23.40;99.90;;;;;;5038104;28;20244;-91
2021/08/24 00:17:33;;;;;;;8.83;6.17;;;23.70;99.90;;;;;;5038522;28;20198;-91
2021/08/24 00:20:19;;;;;;;8.40;5.97;;;24.00;99.90;;;;;;5034793;28;20206;-90
2021/08/24 00:23:11;;;;;;;7.23;5.43;;;23.90;99.90;;;;;;5002127;28;20217;-96
2021/08/24 00:25:44;;;;;;;9.20;6.10;;;23.60;99.90;;;;;;5032545;28;20217;-91
2021/08/24 00:28:19;;;;;;;10.53;6.20;;;23.30;99.90;;;;;;5035656;28;20266;-91
2021/08/24 00:30:52;;;;;;;9.47;6.57;;;23.50;99.90;;;;;;5036767;28;20201;-90
2021/08/24 00:33:24;;;;;;;9.70;5.93;;;23.80;99.90;;;;;;5034784;28;20327;-90
2021/08/24 00:35:57;;;;;;;8.33;5.87;;;23.70;99.90;;;;;;5037827;28;20212;-91
2021/08/24 00:38:30;;;;;;;9.17;6.07;;;23.70;99.90;;;;;;5033829;28;20209;-91
2021/08/24 00:41:08;;;;;;;8.10;5.83;;;23.50;99.90;;;;;;5034452;28;20248;-90
2021/08/24 00:43:55;;;;;;;8.83;6.13;;;23.60;99.90;;;;;;5053826;23;20606;-91
2021/08/24 00:46:35;;;;;;;9.93;6.10;;;23.80;99.90;;;;;;5052816;28;20262;-93
2021/08/24 00:49:10;;;;;;;8.43;6.40;;;23.80;99.90;;;;;;5057106;28;20211;-92
2021/08/24 00:51:44;;;;;;;10.57;6.07;;;23.70;99.90;;;;;;5052549;28;20272;-92
2021/08/24 00:54:37;;;;;;;9.43;5.80;;;23.40;99.90;;;;;;5055371;28;20251;-91
2021/08/24 00:57:14;;;;;;;6.67;5.50;;;23.50;99.90;;;;;;5047019;28;20228;-92
2021/08/24 00:59:46;;;;;;;7.80;5.00;;;23.40;99.90;;;;;;5050909;28;20205;-92
2021/08/24 01:02:20;;;;;;;9.10;5.60;;;23.30;99.90;;;;;;5050774;28;20268;-92
2021/08/24 01:04:54;;;;;;;8.83;5.90;;;23.40;99.90;;;;;;5050477;28;20204;-92
2021/08/24 01:07:36;;;;;;;8.57;6.17;;;23.30;99.90;;;;;;5049437;28;20211;-92
2021/08/24 01:10:18;;;;;;;7.63;5.43;;;23.10;99.90;;;;;;5050042;28;20213;-91
2021/08/24 01:12:55;;;;;;;6.70;5.33;;;23.40;99.90;;;;;;5051129;28;20268;-92
2021/08/24 01:21:17;;;;;;;6.90;5.30;;;23.40;99.90;;;;;;5066636;28;20552;-92
2021/08/24 01:23:52;;;;;;;8.17;4.87;;;23.20;99.90;;;;;;5068457;28;20205;-91
2021/08/24 01:26:35;;;;;;;6.87;5.33;;;23.80;99.90;;;;;;5070015;28;20211;-91
2021/08/24 01:29:46;;;;;;;8.17;5.37;;;24.00;99.90;;;;;;5067593;28;20223;-92
2021/08/24 01:32:40;;;;;;;9.83;5.23;;;24.00;99.90;;;;;;5051260;28;20217;-91
2021/08/24 01:35:55;;;;;;;7.70;5.40;;;23.20;99.90;;;;;;5050105;28;20228;-92
2021/08/24 01:38:31;;;;;;;7.87;5.17;;;22.50;99.90;;;;;;4989287;28;20271;-91
2021/08/24 01:44:04;;;;;;;8.47;5.00;;;21.80;99.90;;;;;;5050955;28;20227;-91
2021/08/24 01:46:45;;;;;;;7.10;5.23;;;21.60;99.90;;;;;;5053438;28;20259;-89
2021/08/24 01:49:19;;;;;;;7.13;5.33;;;21.30;99.90;;;;;;5055659;28;20204;-90
2021/08/24 01:51:59;;;;;;;7.70;5.27;;;21.20;99.90;;;;;;5051046;28;20239;-91
2021/08/24 02:08:12;;;;;;;7.73;5.63;;;21.10;99.90;;;;;;6192577;22;3065562;-92
2021/08/24 02:10:47;;;;;;;8.03;5.23;;;20.50;99.90;;;;;;6303177;22;20228;-92
2021/08/24 02:13:20;;;;;;;8.03;5.30;;;20.40;99.90;;;;;;6304499;22;20163;-93
2021/08/24 02:15:59;;;;;;;12.07;6.13;;;20.30;99.90;;;;;;6303726;22;20191;-92
2021/08/24 02:18:37;;;;;;;7.70;5.47;;;20.20;99.90;;;;;;6303289;22;20181;-92
2021/08/24 02:21:13;;;;;;;8.30;5.50;;;20.10;99.90;;;;;;6305563;22;20236;-92
2021/08/24 02:23:50;;;;;;;6.57;5.47;;;20.10;99.90;;;;;;6277501;22;20174;-92
2021/08/24 02:26:27;;;;;;;7.90;5.50;;;20.00;99.90;;;;;;6302956;22;20197;-92
2021/08/24 02:29:01;;;;;;;8.20;5.40;;;19.90;99.90;;;;;;6277116;22;20201;-92
2021/08/24 02:31:37;;;;;;;6.87;5.23;;;19.80;99.90;;;;;;6307671;22;20177;-92
2021/08/24 02:34:15;;;;;;;7.60;4.90;;;19.70;99.90;;;;;;6304032;22;20194;-91
2021/08/24 02:36:57;;;;;;;7.83;4.87;;;19.70;99.90;;;;;;6302922;22;20240;-92
2021/08/24 02:39:38;;;;;;;9.87;5.10;;;19.50;99.90;;;;;;6303077;22;20222;-92
2021/08/24 02:42:16;;;;;;;10.17;5.17;;;19.40;99.90;;;;;;6270569;22;20208;-91
2021/08/24 02:44:54;;;;;;;7.37;5.07;;;19.30;99.90;;;;;;6240123;23;20179;-91
2021/08/24 02:47:26;;;;;;;8.33;5.87;;;19.20;99.90;;;;;;6243352;23;20164;-92
2021/08/24 02:49:58;;;;;;;7.17;5.27;;;19.20;99.90;;;;;;6246033;23;20172;-92
2021/08/24 02:52:30;;;;;;;7.47;5.20;;;19.10;99.90;;;;;;6245696;23;20234;-92
2021/08/24 02:55:06;;;;;;;7.50;5.40;;;19.00;99.90;;;;;;6242466;23;20204;-92
2021/08/24 02:57:41;;;;;;;7.77;4.90;;;18.90;99.90;;;;;;6245188;23;20195;-92
2021/08/24 03:00:13;;;;;;;6.53;5.03;;;18.70;99.90;;;;;;6241657;23;20179;-92
2021/08/24 03:02:44;;;;;;;8.90;5.07;;;18.70;99.90;;;;;;6241728;23;20164;-92
2021/08/24 03:05:17;;;;;;;8.17;4.80;;;18.60;99.90;;;;;;6232546;23;20222;-92
2021/08/24 03:07:49;;;;;;;7.87;5.40;;;18.50;99.90;;;;;;6239344;23;20183;-91
2021/08/24 03:16:02;;;;;;;10.87;4.50;;;18.10;99.90;;;;;;6240657;22;20202;-92
2021/08/24 03:18:40;;;;;;;9.00;5.30;;;18.10;99.90;;;;;;6236184;23;20172;-91
2021/08/24 03:31:58;;;;;;;6.33;5.20;;;17.70;99.90;;;;;;6293047;22;20182;-92
2021/08/24 03:34:30;;;;;;;11.90;5.30;;;17.60;99.90;;;;;;6294238;22;20167;-92
2021/08/24 03:37:01;;;;;;;7.23;5.50;;;17.50;99.90;;;;;;6296449;22;20191;-91
2021/08/24 03:39:33;;;;;;;8.23;5.33;;;17.40;99.90;;;;;;6299753;22;20179;-92
2021/08/24 03:42:04;;;;;;;9.03;5.13;;;17.30;99.90;;;;;;6293325;22;20182;-91
2021/08/24 03:44:37;;;;;;;8.10;5.50;;;17.30;99.90;;;;;;6280828;22;20171;-92
2021/08/24 03:47:11;;;;;;;7.40;5.50;;;17.20;99.90;;;;;;6281108;22;20170;-91
2021/08/24 03:49:42;;;;;;;9.57;5.17;;;17.10;99.90;;;;;;6282142;22;20170;-92
2021/08/24 03:52:14;;;;;;;9.13;5.33;;;17.00;99.90;;;;;;6285050;22;20181;-92
2021/08/24 03:57:22;;;;;;;7.90;5.00;;;16.90;99.90;;;;;;6257007;22;20207;-91
2021/08/24 03:59:56;;;;;;;10.60;6.10;;;16.70;99.90;;;;;;6264741;22;20164;-91
2021/08/24 04:05:13;;;;;;;10.20;5.90;;;16.60;99.90;;;;;;6254407;22;20700;-91
2021/08/24 04:07:46;;;;;;;8.80;5.40;;;16.60;99.90;;;;;;6233765;23;20199;-90
2021/08/24 04:10:21;;;;;;;8.30;5.37;;;16.50;99.90;;;;;;6235913;23;20236;-91
2021/08/24 04:12:54;;;;;;;7.93;5.30;;;16.50;99.90;;;;;;6237074;23;20172;-89
2021/08/24 04:15:25;;;;;;;7.07;5.23;;;16.40;99.90;;;;;;6243100;23;20176;-90
2021/08/24 04:17:57;;;;;;;8.77;5.73;;;16.40;99.90;;;;;;6240925;22;20204;-90
2021/08/24 04:20:31;;;;;;;11.27;5.90;;;16.40;99.90;;;;;;6237860;23;20183;-89
2021/08/24 04:28:20;;;;;;;8.50;5.60;;;16.20;99.90;;;;;;6238995;22;20215;-91
2021/08/24 04:30:52;;;;;;;8.47;5.83;;;16.20;99.90;;;;;;6233923;23;20188;-91
2021/08/24 04:33:24;;;;;;;8.57;5.57;;;16.10;99.90;;;;;;6235956;23;20629;-91
2021/08/24 04:35:57;;;;;;;11.70;6.20;;;16.10;99.90;;;;;;6221538;23;20176;-91
2021/08/24 04:38:31;;;;;;;8.93;5.37;;;16.10;99.90;;;;;;6222853;23;20203;-91
2021/08/24 04:41:03;;;;;;;8.67;6.23;;;16.10;99.90;;;;;;6233286;23;20227;-91
2021/08/24 04:43:35;;;;;;;9.07;5.70;;;16.00;99.90;;;;;;6234701;23;20195;-91
2021/08/24 04:46:07;;;;;;;15.33;7.23;;;16.00;99.90;;;;;;6233549;23;20614;-91
2021/08/24 04:48:39;;;;;;;10.30;6.83;;;16.00;99.90;;;;;;6231932;23;20176;-91
2021/08/24 04:51:12;;;;;;;11.07;6.17;;;15.90;99.90;;;;;;6229480;23;20165;-91
2021/08/24 04:53:44;;;;;;;9.67;5.93;;;15.90;99.90;;;;;;6233957;23;20175;-91
2021/08/24 04:56:15;;;;;;;11.07;6.07;;;15.80;99.90;;;;;;6235065;23;20173;-91
2021/08/24 04:58:50;;;;;;;7.90;6.10;;;15.70;99.90;;;;;;6233678;23;20168;-91
2021/08/24 05:01:21;;;;;;;9.57;5.90;;;15.70;99.90;;;;;;6231724;23;20180;-91
2021/08/24 05:03:54;;;;;;;10.43;5.93;;;15.70;99.90;;;;;;6234500;23;20239;-91
2021/08/24 05:06:29;;;;;;;10.97;6.27;;;15.60;99.90;;;;;;6232910;23;20183;-91
2021/08/24 05:09:01;;;;;;;9.60;5.80;;;15.60;99.90;;;;;;6222501;23;20634;-91
2021/08/24 05:11:32;;;;;;;7.73;5.67;;;15.60;99.90;;;;;;6227314;23;20195;-91
2021/08/24 05:14:04;;;;;;;10.97;6.20;;;15.50;99.90;;;;;;6222366;23;20630;-91
2021/08/24 05:16:35;;;;;;;8.70;5.80;;;15.50;99.90;;;;;;6223177;23;20180;-92
2021/08/24 05:19:06;;;;;;;9.47;5.70;;;15.50;99.90;;;;;;6222975;23;20176;-91
2021/08/24 05:21:40;;;;;;;8.30;5.73;;;15.50;99.90;;;;;;6222628;23;20176;-90
2021/08/24 05:24:11;;;;;;;9.57;6.40;;;15.40;99.90;;;;;;6229022;23;20164;-91
2021/08/24 05:26:42;;;;;;;8.77;5.40;;;15.30;99.90;;;;;;6233753;23;20169;-91
2021/08/24 05:29:16;;;;;;;10.93;5.60;;;15.30;99.90;;;;;;6234463;23;20215;-90
2021/08/24 05:31:49;;;;;;;10.33;6.30;;;15.30;99.90;;;;;;6241236;23;20165;-90
2021/08/24 05:37:06;;;;;;;9.90;5.60;;;15.20;99.90;;;;;;6231558;22;20242;-90
2021/08/24 05:39:39;;;;;;;10.73;5.77;;;15.10;99.90;;;;;;6239030;23;20160;-90
2021/08/24 05:42:09;;;;;;;8.77;5.63;;;15.10;99.90;;;;;;6235198;23;20175;-90
2021/08/24 05:44:40;;;;;;;9.47;5.57;;;15.10;99.90;;;;;;6226404;23;20176;-90
2021/08/24 05:47:12;;;;;;;9.47;6.20;;;15.00;99.90;;;;;;6220657;23;20211;-90
2021/08/24 05:49:43;;;;;;;12.03;5.40;;;15.00;99.90;;;;;;6233871;23;20176;-90
2021/08/24 05:52:19;;;;;;;9.53;6.20;;;15.00;99.90;;;;;;6225925;23;20248;-90
2021/08/24 05:54:51;;;;;;;8.27;5.37;;;15.00;99.90;;;;;;6219164;23;20172;-90
2021/08/24 05:57:22;;;;;;;8.27;6.20;;;14.90;99.90;;;;;;6219048;23;20732;-90
2021/08/24 05:59:54;;;;;;;10.10;6.27;;;14.90;99.90;;;;;;6218994;23;20246;-90
2021/08/24 06:02:25;;;;;;;8.10;5.40;;;14.90;99.90;;;;;;6218741;23;20199;-90
2021/08/24 06:04:56;;;;;;;9.70;5.83;;;14.80;99.90;;;;;;6219640;23;20199;-90
2021/08/24 06:07:28;;;;;;;11.33;5.73;;;14.80;99.90;;;;;;6218648;23;20234;-90
2021/08/24 06:10:00;;;;;;;9.00;5.33;;;14.70;99.90;;;;;;6218464;23;20164;-90
2021/08/24 06:12:32;;;;;;;9.93;5.93;;;14.70;99.90;;;;;;6218615;23;20234;-90
2021/08/24 06:15:03;;;;;;;9.57;5.60;;;14.70;99.90;;;;;;6219894;23;20179;-90
2021/08/24 06:17:35;;;;;;;8.87;5.87;;;14.70;99.90;;;;;;6218413;23;20227;-90
2021/08/24 06:20:07;;;;;;;8.87;5.57;;;14.60;99.90;;;;;;6218210;23;20196;-90
2021/08/24 06:22:40;;;;;;;9.07;5.73;;;14.60;99.90;;;;;;6219691;23;20183;-90
2021/08/24 06:25:12;;;;;;;7.30;5.43;;;14.60;99.90;;;;;;6217553;23;20203;-88
2021/08/24 06:27:44;;;;;;;8.87;5.43;;;14.50;99.90;;;;;;6223639;23;20203;-89
2021/08/24 06:30:15;;;;;;;13.10;6.03;;;14.50;99.90;;;;;;6242167;23;20165;-92
2021/08/24 06:32:49;;;;;;;7.67;5.50;;;14.50;99.90;;;;;;6213330;22;20241;-91
2021/08/24 06:35:21;;;;;;;9.87;6.23;;;14.50;99.90;;;;;;6227756;23;20188;-91
2021/08/24 06:38:00;;;;;;;11.77;6.90;;;14.40;99.90;;;;;;6219727;23;20200;-89
2021/08/24 06:40:31;;;;;;;10.23;5.90;;;14.40;99.90;;;;;;6218538;23;20180;-89
2021/08/24 06:43:03;;;;;;;11.40;6.00;;;14.40;99.90;;;;;;6219588;23;20565;-90
2021/08/24 06:45:35;;;;;;;8.50;5.73;;;14.40;99.90;;;;;;6219206;23;20227;-90
2021/08/24 06:48:06;;;;;;;10.17;5.83;;;14.40;99.90;;;;;;6220670;23;20243;-90
2021/08/24 06:50:39;;;;;;;9.50;6.13;;;14.30;99.90;;;;;;6220096;23;20176;-90
2021/08/24 06:53:13;;;;;;;9.07;5.53;;;14.30;99.90;;;;;;6219380;23;20187;-90
2021/08/24 06:55:45;;;;;;;9.73;6.03;;;14.30;99.90;;;;;;6219521;23;20192;-89
2021/08/24 06:58:18;;;;;;;8.50;5.90;;;14.20;99.90;;;;;;6221876;23;20196;-90
2021/08/24 07:00:51;;;;;;;10.77;5.80;;;14.20;99.90;;;;;;6221861;23;20180;-91
2021/08/24 07:03:22;;;;;;;8.93;6.20;;;14.20;99.90;;;;;;6220900;23;20168;-91
2021/08/24 07:05:55;;;;;;;11.53;6.30;;;14.20;99.90;;;;;;6221424;23;20606;-91
2021/08/24 07:08:28;;;;;;;12.23;5.93;;;14.20;99.90;;;;;;6221281;23;20169;-91
2021/08/24 07:10:59;;;;;;;9.43;6.00;;;14.10;99.90;;;;;;6219605;23;20196;-90
2021/08/24 07:13:33;;;;;;;11.27;5.93;;;14.00;99.90;;;;;;6220917;23;20230;-90
2021/08/24 07:16:09;;;;;;;13.43;6.70;;;14.00;99.90;;;;;;6221021;23;20196;-91
2021/08/24 07:18:40;;;;;;;10.87;5.90;;;13.90;99.90;;;;;;6220956;23;20196;-90
2021/08/24 07:21:16;;;;;;;8.97;5.83;;;13.90;99.90;;;;;;6223335;23;20242;-90
2021/08/24 07:23:50;;;;;;;8.50;5.93;;;13.90;99.90;;;;;;6222681;23;20183;-90
2021/08/24 07:26:22;;;;;;;8.53;6.43;;;13.90;99.90;;;;;;6234317;23;20176;-88
2021/08/24 07:28:57;;;;;;;10.47;6.50;;;13.80;99.90;;;;;;6242019;23;20177;-90
2021/08/24 07:31:28;;;;;;;7.87;6.03;;;13.80;99.90;;;;;;6239779;23;20174;-90
2021/08/24 07:34:02;;;;;;;9.80;6.40;;;13.80;99.90;;;;;;6266122;23;20238;-91
2021/08/24 07:39:11;;;;;;;11.97;6.67;;;13.70;99.90;;;;;;6237605;22;20208;-91
2021/08/24 07:41:42;;;;;;;10.07;6.20;;;13.70;99.90;;;;;;6238540;23;20184;-92
2021/08/24 07:44:15;;;;;;;9.80;6.10;;;13.70;99.90;;;;;;6242019;23;20172;-91
2021/08/24 07:46:46;;;;;;;10.93;6.23;;;13.70;99.90;;;;;;6214212;23;20168;-89
2021/08/24 07:49:17;;;;;;;9.07;6.43;;;13.60;99.90;;;;;;6240589;23;20238;-91
2021/08/24 07:51:48;;;;;;;11.23;6.53;;;13.60;99.90;;;;;;6238406;23;20168;-91
2021/08/24 07:54:21;;;;;;;9.73;6.30;;;13.50;99.90;;;;;;6228394;23;20180;-92
2021/08/24 07:56:52;;;;;;;8.60;6.37;;;13.50;99.90;;;;;;6228459;23;20184;-92
2021/08/24 07:59:25;;;;;;;9.00;5.73;;;13.50;99.90;;;;;;6227636;23;20204;-92
2021/08/24 08:01:56;;;;;;;7.67;5.87;;;13.40;99.90;;;;;;6225402;23;20177;-91
2021/08/24 08:04:29;;;;;;;9.50;6.47;;;13.40;99.90;;;;;;6225834;23;20370;-93
2021/08/24 08:07:00;;;;;;;11.03;6.20;;;13.40;99.90;;;;;;6227028;23;20180;-92
2021/08/24 08:09:33;;;;;;;11.23;6.57;;;13.30;99.90;;;;;;6226207;23;20246;-92
2021/08/24 08:12:05;;;;;;;10.07;6.50;;;13.30;99.90;;;;;;6238072;23;20176;-91
2021/08/24 08:14:38;;;;;;;10.33;6.47;;;13.20;99.90;;;;;;6237400;23;20183;-91
2021/08/24 08:17:10;;;;;;;10.33;6.57;;;13.20;99.90;;;;;;6237704;23;20173;-90
2021/08/24 08:19:42;;;;;;;9.67;6.67;;;13.20;99.90;;;;;;6237145;23;20192;-91
2021/08/24 08:22:15;;;;;;;9.80;6.27;;;13.10;99.90;;;;;;6238329;23;20195;-91
2021/08/24 08:24:48;;;;;;;10.03;6.17;;;13.10;99.90;;;;;;6223052;23;20177;-91
2021/08/24 08:27:19;;;;;;;9.23;5.97;;;13.10;99.90;;;;;;6224082;23;20603;-91
2021/08/24 08:29:51;;;;;;;9.40;5.77;;;13.10;99.90;;;;;;6221534;23;20184;-91
2021/08/24 08:32:26;;;;;;;11.07;6.57;;;13.00;99.90;;;;;;6222010;23;20169;-91
2021/08/24 08:34:57;;;;;;;10.23;5.93;;;13.00;99.90;;;;;;6221938;23;20168;-91
2021/08/24 08:37:28;;;;;;;10.87;6.40;;;13.00;99.90;;;;;;6229832;23;20194;-91
2021/08/24 08:40:01;;;;;;;12.57;6.50;;;13.00;99.90;;;;;;6257301;23;20195;-91
2021/08/24 08:42:50;;;;;;;8.77;6.10;;;12.90;99.90;;;;;;6244390;22;20166;-91
2021/08/24 08:45:31;;;;;;;11.63;6.13;;;12.80;99.90;;;;;;6258853;23;20164;-92
2021/08/24 08:48:16;;;;;;;9.10;6.13;;;12.80;99.90;;;;;;6255006;23;20270;-92
2021/08/24 08:50:51;;;;;;;10.63;6.57;;;12.80;99.90;;;;;;6253379;23;20201;-91
2021/08/24 08:53:31;;;;;;;8.03;5.70;;;12.80;99.90;;;;;;6252295;23;20175;-91
2021/08/24 08:56:11;;;;;;;11.03;6.33;;;12.70;99.90;;;;;;6253044;23;20183;-92
2021/08/24 08:58:52;;;;;;;9.33;5.97;;;12.60;99.90;;;;;;6252293;23;20195;-91
2021/08/24 09:04:18;;;;;;;9.50;6.10;;;12.60;99.90;;;;;;6261117;23;20186;-92
2021/08/24 09:06:52;;;;;;;8.60;6.07;;;12.60;99.90;;;;;;6256493;23;20180;-92
2021/08/24 09:09:24;;;;;;;10.13;6.33;;;12.60;99.90;;;;;;6228338;23;20186;-92
2021/08/24 09:12:01;;;;;;;11.17;6.50;;;12.60;99.90;;;;;;6227067;23;20167;-91
2021/08/24 09:14:36;;;;;;;12.17;5.97;;;12.60;99.90;;;;;;6253939;23;20175;-91
2021/08/24 09:17:19;;;;;;;9.93;5.40;;;12.50;99.90;;;;;;6251671;23;20199;-91
2021/08/24 09:19:57;;;;;;;9.63;5.90;;;12.50;99.90;;;;;;6227045;23;20203;-91
2021/08/24 09:22:30;;;;;;;9.80;5.57;;;12.40;99.90;;;;;;6253634;23;20190;-91
2021/08/24 09:25:04;;;;;;;9.47;6.37;;;12.40;99.90;;;;;;6251149;23;20175;-91
2021/08/24 09:27:45;;;;;;;8.77;5.77;;;12.40;99.90;;;;;;6251137;23;20175;-92
2021/08/24 09:30:17;;;;;;;13.00;6.37;;;12.40;99.90;;;;;;6250036;23;20168;-92
2021/08/24 09:32:49;;;;;;;10.47;6.37;;;12.40;99.90;;;;;;6250862;23;20175;-91
2021/08/24 09:35:30;;;;;;;8.20;6.10;;;12.40;99.90;;;;;;6250920;23;20658;-91
2021/08/24 09:38:03;;;;;;;8.37;5.60;;;12.30;99.90;;;;;;6250974;23;20229;-91
2021/08/24 09:40:43;;;;;;;9.47;6.13;;;12.30;99.90;;;;;;6250068;23;20199;-90
2021/08/24 09:43:32;;;;;;;10.83;6.10;;;12.30;99.90;;;;;;6250008;23;20202;-91
2021/08/24 09:46:06;;;;;;;13.90;6.80;;;12.30;99.90;;;;;;6246727;23;20172;-92
2021/08/24 09:48:52;;;;;;;8.53;6.17;;;12.30;99.90;;;;;;6224380;23;20163;-92
2021/08/24 09:51:37;;;;;;;10.23;6.47;;;12.30;99.90;;;;;;6248988;23;20182;-91
2021/08/24 09:54:15;;;;;;;9.13;6.03;;;12.30;99.90;;;;;;6249918;23;20171;-91
2021/08/24 09:56:53;;;;;;;10.40;6.40;;;12.30;99.90;;;;;;6249436;23;20167;-91
2021/08/24 09:59:30;;;;;;;9.17;5.93;;;12.30;99.90;;;;;;6250991;23;20203;-91
2021/08/24 10:02:01;;;;;;;9.20;6.20;;;12.30;99.90;;;;;;6222657;23;20167;-91
2021/08/24 10:04:34;;;;;;;12.27;6.50;;;12.20;99.90;;;;;;6249317;23;20191;-92
2021/08/24 10:07:08;;;;;;;11.13;5.93;;;12.10;99.90;;;;;;6250132;23;20176;-91
2021/08/24 10:09:42;;;;;;;9.90;6.30;;;12.10;99.90;;;;;;6250148;23;20183;-92
2021/08/24 10:12:24;;;;;;;10.50;6.27;;;12.00;99.90;;;;;;6249051;23;20175;-91
2021/08/24 10:14:59;;;;;;;10.20;5.93;;;11.90;99.90;;;;;;6250740;23;20164;-91
2021/08/24 10:17:35;;;;;;;10.93;6.67;;;11.90;99.90;;;;;;6250791;23;20175;-91
2021/08/24 10:20:22;;;;;;;9.93;6.33;;;11.80;99.90;;;;;;6253308;23;20214;-91
2021/08/24 10:22:55;;;;;;;11.73;6.60;;;11.80;99.90;;;;;;6252128;23;20220;-90
2021/08/24 10:25:30;;;;;;;9.00;6.53;;;11.80;99.90;;;;;;6253363;23;20239;-91
2021/08/24 10:28:07;;;;;;;9.03;6.50;;;11.80;99.90;;;;;;6252872;23;20171;-91
2021/08/24 10:30:45;;;;;;;12.23;7.00;;;11.80;99.90;;;;;;6252122;23;20224;-91
2021/08/24 10:33:26;;;;;;;10.77;6.37;;;11.80;99.90;;;;;;6259431;23;20239;-91
2021/08/24 10:36:03;;;;;;;11.33;6.67;;;11.80;99.90;;;;;;6268746;22;20187;-91
2021/08/24 10:38:46;;;;;;;13.27;6.63;;;11.70;99.90;;;;;;6255781;23;20187;-91
2021/08/24 10:41:32;;;;;;;10.63;6.43;;;11.70;99.90;;;;;;6258312;23;20203;-90
2021/08/24 10:44:15;;;;;;;11.47;6.20;;;11.70;99.90;;;;;;6265107;23;20187;-92
2021/08/24 10:47:04;;;;;;;9.97;6.67;;;11.60;99.90;;;;;;6264984;23;20180;-91
2021/08/24 10:49:35;;;;;;;9.03;6.03;;;11.60;99.90;;;;;;6262316;23;20175;-92
2021/08/24 10:52:14;;;;;;;11.60;6.53;;;11.60;99.90;;;;;;6261689;23;20164;-92
2021/08/24 10:55:07;;;;;;;12.73;6.40;;;11.60;99.90;;;;;;6248894;23;20167;-90
2021/08/24 10:58:03;;;;;;;12.80;6.50;;;11.60;99.90;;;;;;6274862;22;20163;-92
2021/08/24 11:00:50;;;;;;;11.77;6.67;;;11.60;99.90;;;;;;6273466;22;20254;-90
2021/08/24 11:03:49;;;;;;;9.60;6.97;;;11.60;99.90;;;;;;6246714;22;20180;-91
2021/08/24 11:06:28;;;;;;;11.83;6.23;;;11.60;99.90;;;;;;6274340;22;20174;-91
2021/08/24 11:09:17;;;;;;;12.73;6.30;;;11.60;99.90;;;;;;6268883;23;20183;-92
2021/08/24 11:12:02;;;;;;;10.87;6.60;;;11.60;99.90;;;;;;6251841;23;20626;-88
2021/08/24 11:14:43;;;;;;;13.80;6.50;;;11.60;99.90;;;;;;6251549;23;20175;-90
2021/08/24 11:17:21;;;;;;;11.70;7.10;;;11.50;99.90;;;;;;6251157;23;20544;-91
2021/08/24 11:20:07;;;;;;;13.83;6.90;;;11.40;99.90;;;;;;6251748;23;20708;-91
2021/08/24 11:22:42;;;;;;;8.87;6.40;;;11.40;99.90;;;;;;6250060;23;20610;-91
2021/08/24 11:25:25;;;;;;;14.90;7.67;;;11.40;99.90;;;;;;6250884;23;20179;-90
2021/08/24 11:28:01;;;;;;;12.07;6.97;;;11.40;99.90;;;;;;6250761;23;20171;-91
2021/08/24 11:30:44;;;;;;;11.93;6.80;;;11.40;99.90;;;;;;6252355;22;20689;-91
2021/08/24 11:33:20;;;;;;;8.93;6.07;;;11.40;99.90;;;;;;6250332;23;20179;-91
2021/08/24 11:35:59;;;;;;;10.37;6.43;;;11.40;99.90;;;;;;6250551;23;20225;-91
2021/08/24 11:38:35;;;;;;;13.30;6.83;;;11.40;99.90;;;;;;6255764;23;20184;-91
2021/08/24 11:41:10;;;;;;;10.80;7.40;;;11.40;99.90;;;;;;6249805;23;20278;-91
2021/08/24 11:43:46;;;;;;;12.33;6.60;;;11.40;99.90;;;;;;6250606;23;20498;-91
2021/08/24 11:46:25;;;;;;;13.43;6.87;;;11.40;99.90;;;;;;6225486;23;20176;-90
2021/08/24 11:49:05;;;;;;;12.77;7.10;;;11.40;99.90;;;;;;6250484;23;20235;-91
2021/08/24 11:51:50;;;;;;;11.77;6.93;;;11.30;99.90;;;;;;6252236;23;20222;-90
2021/08/24 11:54:27;;;;;;;12.40;6.60;;;11.30;99.90;;;;;;6250499;23;20527;-91
2021/08/24 11:57:05;;;;;;;12.57;6.97;;;11.30;99.90;;;;;;6250336;23;20218;-91
2021/08/24 11:59:41;;;;;;;12.20;6.80;;;11.30;99.90;;;;;;6223475;23;20175;-91
2021/08/24 12:02:17;;;;;;;11.57;6.97;;;11.20;99.90;;;;;;6249323;23;20203;-91
2021/08/24 12:04:52;;;;;;;10.43;6.73;;;11.20;99.90;;;;;;6254525;23;20164;-91
2021/08/24 12:07:33;;;;;;;12.17;7.07;;;11.20;99.90;;;;;;6260308;23;20187;-92
2021/08/24 12:10:17;;;;;;;11.20;7.10;;;11.10;99.90;;;;;;6258000;23;20176;-91
2021/08/24 12:12:53;;;;;;;12.43;6.63;;;11.10;99.90;;;;;;6229825;23;20183;-91
2021/08/24 12:15:38;;;;;;;10.70;5.73;;;11.10;99.90;;;;;;6232784;23;20179;-91
2021/08/24 12:18:27;;;;;;;11.83;6.40;;;11.10;99.90;;;;;;6254480;23;20178;-91
2021/08/24 12:21:01;;;;;;;11.67;6.63;;;11.10;99.90;;;;;;6251470;23;20233;-91
2021/08/24 12:23:40;;;;;;;11.53;6.43;;;11.10;99.90;;;;;;6251457;23;20176;-91
2021/08/24 12:26:32;;;;;;;11.50;6.63;;;11.10;99.90;;;;;;6252345;23;20172;-91
2021/08/24 12:29:09;;;;;;;11.20;6.80;;;11.00;99.90;;;;;;6251256;23;20199;-91
2021/08/24 12:31:46;;;;;;;10.27;6.60;;;11.00;99.90;;;;;;6249816;23;20207;-91
2021/08/24 12:34:51;;;;;;;7.53;5.73;;;10.90;99.90;;;;;;6250664;23;20218;-91
2021/08/24 12:37:48;;;;;;;9.33;6.00;;;10.90;99.90;;;;;;6249625;23;20186;-91
2021/08/24 12:41:00;;;;;;;8.83;6.27;;;10.90;99.90;;;;;;6248377;23;20180;-90
2021/08/24 12:44:16;;;;;;;9.20;6.40;;;10.90;99.90;;;;;;6250598;23;20249;-91
2021/08/24 12:46:49;;;;;;;8.13;5.60;;;10.90;99.90;;;;;;6223684;23;20179;-90
2021/08/24 12:49:41;;;;;;;11.33;5.93;;;10.90;99.90;;;;;;6249698;23;20178;-91
2021/08/24 12:52:35;;;;;;;10.83;6.43;;;10.80;99.90;;;;;;6250195;22;20239;-91
2021/08/24 12:55:31;;;;;;;10.53;6.20;;;10.80;99.90;;;;;;6249588;23;20267;-91
2021/08/24 12:58:04;;;;;;;10.90;6.43;;;10.80;99.90;;;;;;6249378;23;20176;-91
2021/08/24 13:00:44;;;;;;;13.30;6.00;;;10.80;99.90;;;;;;6248567;23;20195;-91
2021/08/24 13:03:22;;;;;;;12.93;6.30;;;10.80;99.90;;;;;;6249136;23;20164;-91
2021/08/24 13:06:18;;;;;;;10.73;5.87;;;10.80;99.90;;;;;;6249606;23;20172;-91
2021/08/24 13:08:51;;;;;;;10.73;6.30;;;10.80;99.90;;;;;;6250168;23;20180;-91
2021/08/24 13:11:44;;;;;;;10.93;6.17;;;10.70;99.90;;;;;;6249090;23;20231;-91
2021/08/24 13:14:43;;;;;;;10.30;6.63;;;10.70;99.90;;;;;;6260411;23;20160;-91
2021/08/24 13:17:20;;;;;;;9.93;5.87;;;10.70;99.90;;;;;;6273185;22;20160;-91
2021/08/24 13:19:54;;;;;;;10.37;5.93;;;10.70;99.90;;;;;;6268715;22;20182;-90
2021/08/24 13:22:38;;;;;;;12.93;6.07;;;10.70;99.90;;;;;;6219768;23;20195;-91
2021/08/24 13:25:13;;;;;;;9.97;6.10;;;10.70;99.90;;;;;;6220807;23;20180;-91
2021/08/24 13:27:49;;;;;;;11.83;6.83;;;10.60;99.90;;;;;;6221201;23;20501;-91
2021/08/24 13:30:30;;;;;;;10.00;6.30;;;10.60;99.90;;;;;;6220183;23;20175;-89
2021/08/24 13:33:05;;;;;;;11.33;6.13;;;10.60;99.90;;;;;;6221631;23;20186;-89
2021/08/24 13:35:48;;;;;;;8.90;5.90;;;10.60;99.90;;;;;;6219806;23;20168;-89
2021/08/24 13:38:23;;;;;;;9.73;6.63;;;10.60;99.90;;;;;;6227761;23;20259;-87
2021/08/24 13:40:57;;;;;;;12.53;6.43;;;10.60;99.90;;;;;;6226620;23;20338;-88
2021/08/24 13:43:30;;;;;;;10.13;6.30;;;10.60;99.90;;;;;;6221173;23;20203;-89
2021/08/24 13:46:05;;;;;;;11.00;6.33;;;10.70;99.90;;;;;;6198810;23;20610;-88
2021/08/24 13:48:39;;;;;;;9.43;5.70;;;10.70;99.90;;;;;;6221110;23;20180;-89
2021/08/24 13:51:13;;;;;;;9.03;5.70;;;10.70;99.90;;;;;;6218048;23;20673;-89
2021/08/24 13:53:56;;;;;;;10.90;6.07;;;10.70;99.90;;;;;;6219250;23;20180;-89
2021/08/24 13:56:35;;;;;;;7.63;5.83;;;10.80;99.90;;;;;;6218472;23;20176;-89
2021/08/24 13:59:07;;;;;;;9.70;5.97;;;10.80;99.90;;;;;;6218565;23;20186;-89
2021/08/24 14:01:42;;;;;;;8.93;5.53;;;10.90;99.90;;;;;;6217285;23;20172;-89
2021/08/24 14:04:21;;;;;;;8.90;5.87;;;10.90;99.90;;;;;;6222675;23;20164;-89
2021/08/24 14:06:55;;;;;;;8.13;5.50;;;10.90;99.90;;;;;;6218990;23;20212;-90
2021/08/24 14:09:30;;;;;;;10.13;6.13;;;10.90;99.90;;;;;;6219453;23;20219;-89
2021/08/24 14:12:05;;;;;;;8.87;5.83;;;10.90;99.90;;;;;;6224324;23;20210;-90
2021/08/24 14:14:59;;;;;;;8.80;5.47;;;11.00;99.90;;;;;;6228348;23;20512;-90
2021/08/24 14:17:41;;;;;;;8.37;5.93;;;11.00;99.90;;;;;;6231923;23;20192;-90
2021/08/24 14:20:21;;;;;;;8.23;5.93;;;11.00;99.90;;;;;;6235649;23;20183;-90
2021/08/24 14:23:00;;;;;;;9.07;5.40;;;11.10;99.90;;;;;;6258488;23;20164;-89
2021/08/24 14:25:33;;;;;;;8.83;5.90;;;11.10;99.90;;;;;;6249273;23;20164;-90
2021/08/24 14:28:13;;;;;;;12.83;6.13;;;11.20;99.90;;;;;;6249796;23;20617;-90
2021/08/24 14:30:46;;;;;;;9.80;6.40;;;11.30;99.90;;;;;;6222663;23;20274;-90